createdAt,value
2022-12-24T00:01:36.703Z,1.60
2022-12-24T00:04:05.749Z,1.17
2022-12-24T00:06:34.432Z,1.55
2022-12-24T00:09:04.665Z,1.70
2022-12-24T00:11:33.310Z,1.65
2022-12-24T00:14:01.973Z,1.48
2022-12-24T00:16:30.673Z,1.50
2022-12-24T00:18:59.622Z,1.83
2022-12-24T00:21:28.368Z,1.75
2022-12-24T00:23:57.130Z,1.83
2022-12-24T00:26:27.254Z,1.88
2022-12-24T00:28:55.997Z,1.73
2022-12-24T00:31:24.823Z,1.63
2022-12-24T00:33:53.724Z,2.00
2022-12-24T00:36:22.959Z,1.70
2022-12-24T00:38:51.686Z,1.70
2022-12-24T00:41:26.491Z,1.83
2022-12-24T00:43:57.681Z,1.92
2022-12-24T00:46:26.983Z,1.67
2022-12-24T00:48:55.883Z,1.75
2022-12-24T00:51:24.764Z,1.70
2022-12-24T00:53:54.106Z,2.10
2022-12-24T00:56:23.594Z,1.92
2022-12-24T00:58:52.188Z,2.00
2022-12-24T01:01:22.648Z,1.80
2022-12-24T01:03:51.699Z,1.75
2022-12-24T01:06:20.243Z,1.73
2022-12-24T01:08:51.834Z,1.73
2022-12-24T01:11:20.735Z,6.55
2022-12-24T01:13:49.492Z,3.63
2022-12-24T01:16:19.260Z,3.53
2022-12-24T01:18:49.477Z,3.25
2022-12-24T01:21:18.501Z,3.50
2022-12-24T01:23:47.137Z,2.65
2022-12-24T01:26:15.939Z,2.50
2022-12-24T01:28:44.667Z,2.38
2022-12-24T01:31:14.209Z,1.70
2022-12-24T01:33:43.204Z,2.10
2022-12-24T01:36:13.621Z,1.50
2022-12-24T01:38:42.858Z,2.10
2022-12-24T01:41:33.433Z,1.98
2022-12-24T01:44:16.914Z,1.83
2022-12-24T01:46:45.865Z,2.10
2022-12-24T01:49:15.729Z,1.58
2022-12-24T01:51:47.682Z,1.80
2022-12-24T01:54:18.539Z,1.45
2022-12-24T01:56:48.737Z,1.50
2022-12-24T01:59:18.779Z,1.30
2022-12-24T02:01:48.096Z,1.60
2022-12-24T02:04:19.960Z,1.48
2022-12-24T02:06:49.968Z,1.10
2022-12-24T02:09:18.596Z,1.48
2022-12-24T02:11:47.300Z,1.20
2022-12-24T02:14:16.712Z,1.23
2022-12-24T02:16:48.314Z,1.30
2022-12-24T02:19:26.604Z,1.40
2022-12-24T02:22:00.333Z,1.13
2022-12-24T02:24:40.153Z,1.23
2022-12-24T02:27:16.338Z,1.35
2022-12-24T02:29:53.781Z,1.65
2022-12-24T02:32:25.245Z,1.60
2022-12-24T02:34:57.109Z,2.10
2022-12-24T02:37:29.027Z,1.70
2022-12-24T02:40:00.410Z,1.60
2022-12-24T02:42:37.066Z,1.80
2022-12-24T02:45:09.210Z,1.58
2022-12-24T02:47:38.310Z,1.50
2022-12-24T02:50:08.960Z,1.40
2022-12-24T02:52:38.772Z,1.60
2022-12-24T02:55:10.531Z,1.30
2022-12-24T02:57:45.020Z,1.23
2022-12-24T03:00:16.835Z,1.38
2022-12-24T03:02:53.011Z,1.52
2022-12-24T03:05:24.939Z,1.33
2022-12-24T03:07:58.212Z,1.58
2022-12-24T03:10:32.239Z,1.00
2022-12-24T03:13:04.274Z,1.35
2022-12-24T03:15:34.821Z,1.35
2022-12-24T03:18:04.602Z,1.60
2022-12-24T03:20:35.730Z,1.75
2022-12-24T03:23:04.630Z,1.30
2022-12-24T03:25:34.528Z,1.60
2022-12-24T03:28:05.017Z,1.30
2022-12-24T03:30:35.409Z,1.55
2022-12-24T03:33:04.188Z,1.08
2022-12-24T03:35:33.308Z,0.90
2022-12-24T03:38:01.970Z,1.25
2022-12-24T03:40:30.748Z,1.40
2022-12-24T03:42:59.427Z,1.30
2022-12-24T03:45:28.078Z,1.13
2022-12-24T03:47:58.229Z,1.17
2022-12-24T03:50:27.026Z,1.13
2022-12-24T03:52:56.108Z,1.20
2022-12-24T03:55:24.986Z,1.00
2022-12-24T03:57:53.677Z,1.23
2022-12-24T04:00:22.750Z,1.10
2022-12-24T04:02:51.583Z,1.23
2022-12-24T04:05:22.201Z,1.10
2022-12-24T04:07:50.961Z,0.90
2022-12-24T04:10:19.717Z,0.90
2022-12-24T04:12:48.298Z,1.00
2022-12-24T04:15:17.054Z,1.15
2022-12-24T04:17:45.848Z,1.17
2022-12-24T04:20:14.751Z,1.25
2022-12-24T04:22:44.844Z,1.20
2022-12-24T04:25:13.515Z,1.23
2022-12-24T04:27:42.662Z,1.08
2022-12-24T04:30:11.743Z,1.33
2022-12-24T04:32:40.486Z,1.20
2022-12-24T04:35:09.446Z,1.02
2022-12-24T04:37:38.074Z,1.10
2022-12-24T04:40:08.858Z,1.00
2022-12-24T04:42:37.472Z,1.13
2022-12-24T04:45:06.625Z,1.10
2022-12-24T04:47:35.226Z,1.02
2022-12-24T04:50:03.911Z,1.17
2022-12-24T04:52:32.646Z,0.88
2022-12-24T04:55:01.418Z,1.08
2022-12-24T04:57:33.870Z,1.20
2022-12-24T05:00:02.454Z,1.10
2022-12-24T05:02:31.377Z,1.13
2022-12-24T05:05:00.318Z,1.55
2022-12-24T05:07:28.961Z,0.93
2022-12-24T05:09:57.608Z,1.00
2022-12-24T05:12:26.289Z,1.60
2022-12-24T05:14:56.275Z,0.90
2022-12-24T05:17:25.093Z,1.40
2022-12-24T05:19:53.621Z,1.08
2022-12-24T05:22:39.960Z,0.90
2022-12-24T05:25:26.267Z,1.10
2022-12-24T05:27:55.054Z,1.00
2022-12-24T05:30:25.155Z,1.15
2022-12-24T05:32:53.881Z,1.00
2022-12-24T05:35:22.540Z,1.00
2022-12-24T05:37:51.441Z,1.00
2022-12-24T05:40:20.151Z,1.10
2022-12-24T05:42:48.763Z,1.00
2022-12-24T05:45:17.449Z,1.08
2022-12-24T05:47:47.887Z,1.15
2022-12-24T05:50:16.516Z,1.13
2022-12-24T05:52:45.235Z,1.13
2022-12-24T05:55:13.949Z,1.00
2022-12-24T05:57:42.624Z,1.40
2022-12-24T06:00:11.815Z,1.10
2022-12-24T06:02:43.312Z,1.10
2022-12-24T06:05:13.510Z,1.02
2022-12-24T06:07:42.357Z,1.10
2022-12-24T06:10:11.819Z,0.95
2022-12-24T06:12:40.602Z,1.20
2022-12-24T06:15:09.814Z,1.10
2022-12-24T06:17:38.456Z,0.90
2022-12-24T06:20:07.704Z,1.23
2022-12-24T06:22:37.759Z,1.15
2022-12-24T06:25:06.729Z,1.08
2022-12-24T06:27:35.544Z,0.90
2022-12-24T06:30:04.232Z,0.90
2022-12-24T06:32:33.236Z,1.10
2022-12-24T06:35:01.873Z,1.10
2022-12-24T06:37:30.568Z,1.17
2022-12-24T06:40:00.617Z,1.15
2022-12-24T06:42:29.205Z,1.15
2022-12-24T06:45:02.162Z,1.45
2022-12-24T06:47:34.767Z,1.00
2022-12-24T06:50:03.698Z,1.10
2022-12-24T06:52:32.421Z,1.20
2022-12-24T06:55:02.605Z,1.10
2022-12-24T06:57:32.400Z,1.33
2022-12-24T07:00:01.226Z,1.30
2022-12-24T07:02:30.068Z,1.38
2022-12-24T07:04:58.837Z,1.40
2022-12-24T07:07:27.642Z,1.30
2022-12-24T07:09:57.621Z,1.30
2022-12-24T07:12:28.598Z,1.27
2022-12-24T07:14:57.371Z,3.15
2022-12-24T07:17:26.123Z,3.30
2022-12-24T07:19:55.025Z,3.60
2022-12-24T07:22:23.807Z,3.70
2022-12-24T07:24:52.693Z,4.25
2022-12-24T07:27:22.469Z,3.75
2022-12-24T07:29:52.801Z,3.13
2022-12-24T07:32:21.603Z,2.20
2022-12-24T07:34:50.192Z,2.00
2022-12-24T07:37:18.849Z,2.15
2022-12-24T07:39:47.493Z,1.95
2022-12-24T07:42:16.210Z,2.40
2022-12-24T07:44:44.903Z,2.10
2022-12-24T07:47:15.185Z,2.08
2022-12-24T07:49:43.947Z,2.10
2022-12-24T07:52:12.858Z,1.85
2022-12-24T07:54:41.545Z,2.58
2022-12-24T07:57:10.181Z,2.10
2022-12-24T07:59:39.150Z,2.90
2022-12-24T08:02:11.202Z,3.10
2022-12-24T08:04:46.212Z,2.72
2022-12-24T08:07:14.850Z,2.63
2022-12-24T08:09:44.542Z,2.60
2022-12-24T08:12:13.341Z,2.67
2022-12-24T08:14:41.942Z,2.35
2022-12-24T08:17:10.546Z,2.97
2022-12-24T08:19:39.195Z,4.30
2022-12-24T08:22:09.246Z,5.07
2022-12-24T08:24:38.741Z,5.07
2022-12-24T08:27:07.455Z,3.80
2022-12-24T08:29:36.045Z,4.05
2022-12-24T08:32:05.033Z,3.53
2022-12-24T08:34:33.720Z,3.20
2022-12-24T08:37:02.538Z,2.58
2022-12-24T08:39:32.717Z,3.13
2022-12-24T08:42:01.345Z,3.30
2022-12-24T08:44:29.967Z,3.88
2022-12-24T08:46:58.568Z,3.50
2022-12-24T08:49:27.171Z,3.55
2022-12-24T08:51:55.728Z,4.03
2022-12-24T08:54:25.965Z,3.85
2022-12-24T08:56:55.988Z,3.33
2022-12-24T08:59:24.820Z,3.38
2022-12-24T09:01:53.573Z,4.03
2022-12-24T09:04:22.514Z,4.15
2022-12-24T09:06:51.280Z,4.10
2022-12-24T09:09:19.926Z,4.38
2022-12-24T09:11:48.869Z,4.72
2022-12-24T09:14:18.951Z,4.03
2022-12-24T09:16:47.698Z,4.43
2022-12-24T09:19:16.353Z,4.30
2022-12-24T09:21:45.079Z,4.65
2022-12-24T09:24:13.722Z,2.97
2022-12-24T09:26:42.919Z,2.88
2022-12-24T09:29:12.335Z,3.17
2022-12-24T09:31:42.402Z,3.78
2022-12-24T09:34:11.329Z,3.40
2022-12-24T09:36:39.952Z,3.65
2022-12-24T09:39:08.604Z,3.00
2022-12-24T09:41:44.759Z,2.90
2022-12-24T09:44:21.597Z,2.80
2022-12-24T09:46:53.786Z,2.72
2022-12-24T09:49:24.376Z,2.63
2022-12-24T09:51:54.926Z,3.10
2022-12-24T09:54:26.124Z,3.00
2022-12-24T09:56:56.631Z,2.72
2022-12-24T09:59:27.060Z,4.10
2022-12-24T10:01:57.268Z,4.55
2022-12-24T10:04:28.875Z,3.35
2022-12-24T10:07:01.353Z,2.67
2022-12-24T10:09:33.585Z,2.30
2022-12-24T10:12:06.132Z,1.85
2022-12-24T10:14:41.187Z,1.95
2022-12-24T10:17:22.175Z,2.00
2022-12-24T10:19:54.189Z,2.15
2022-12-24T10:22:26.528Z,1.35
2022-12-24T10:24:59.792Z,1.55
2022-12-24T10:27:31.580Z,1.60
2022-12-24T10:30:04.068Z,1.90
2022-12-24T10:32:34.764Z,1.92
2022-12-24T10:35:08.167Z,2.03
2022-12-24T10:37:36.949Z,1.48
2022-12-24T10:40:05.996Z,1.75
2022-12-24T10:42:50.363Z,1.67
2022-12-24T10:45:20.676Z,1.90
2022-12-24T10:47:52.055Z,1.83
2022-12-24T10:50:23.037Z,1.60
2022-12-24T10:52:53.260Z,2.00
2022-12-24T10:55:27.542Z,1.48
2022-12-24T10:58:01.825Z,1.92
2022-12-24T11:00:35.798Z,2.13
2022-12-24T11:03:22.083Z,2.72
2022-12-24T11:06:01.119Z,4.20
2022-12-24T11:08:29.832Z,2.20
2022-12-24T11:11:00.052Z,1.77
2022-12-24T11:13:38.723Z,3.10
2022-12-24T11:16:09.296Z,3.20
2022-12-24T11:18:45.141Z,2.17
2022-12-24T11:21:21.670Z,2.10
2022-12-24T11:23:55.110Z,3.20
2022-12-24T11:26:25.094Z,2.70
2022-12-24T11:29:08.129Z,2.53
2022-12-24T11:31:37.695Z,2.38
2022-12-24T11:34:21.041Z,2.03
2022-12-24T11:36:49.713Z,2.45
2022-12-24T11:39:21.521Z,2.15
2022-12-24T11:41:51.074Z,2.40
2022-12-24T11:44:25.715Z,1.98
2022-12-24T11:46:56.950Z,2.05
2022-12-24T11:49:27.885Z,2.00
2022-12-24T11:52:06.463Z,2.30
2022-12-24T11:54:37.773Z,2.20
2022-12-24T11:57:07.325Z,2.67
2022-12-24T11:59:39.858Z,2.97
2022-12-24T12:02:17.932Z,2.95
2022-12-24T12:04:51.324Z,3.15
2022-12-24T12:07:22.415Z,3.72
2022-12-24T12:09:52.717Z,3.28
2022-12-24T12:12:26.232Z,3.67
2022-12-24T12:14:56.787Z,3.70
2022-12-24T12:17:28.981Z,3.53
2022-12-24T12:20:00.682Z,3.35
2022-12-24T12:22:31.192Z,3.90
2022-12-24T12:25:01.139Z,3.53
2022-12-24T12:27:32.953Z,3.22
2022-12-24T12:30:03.981Z,4.10
2022-12-24T12:32:37.472Z,5.95
2022-12-24T12:35:16.299Z,5.70
2022-12-24T12:37:46.219Z,3.72
2022-12-24T12:40:16.229Z,3.38
2022-12-24T12:42:48.629Z,3.55
2022-12-24T12:45:32.973Z,3.63
2022-12-24T12:48:11.301Z,3.83
2022-12-24T12:50:46.427Z,3.28
2022-12-24T12:53:25.568Z,4.10
2022-12-24T12:55:58.933Z,3.00
2022-12-24T12:58:29.622Z,2.85
2022-12-24T13:01:01.173Z,3.30
2022-12-24T13:03:46.338Z,2.65
2022-12-24T13:06:37.656Z,3.00
2022-12-24T13:09:24.782Z,2.85
2022-12-24T13:12:08.413Z,2.50
2022-12-24T13:14:43.753Z,2.97
2022-12-24T13:17:22.730Z,3.22
2022-12-24T13:20:02.460Z,2.90
2022-12-24T13:22:32.548Z,3.22
2022-12-24T13:25:01.196Z,3.40
2022-12-24T13:27:30.675Z,3.17
2022-12-24T13:30:08.939Z,3.92
2022-12-24T13:32:39.757Z,4.07
2022-12-24T13:35:23.256Z,4.55
2022-12-24T13:37:53.626Z,7.38
2022-12-24T13:40:25.916Z,9.40
2022-12-24T13:43:09.041Z,5.88
2022-12-24T13:45:48.166Z,3.80
2022-12-24T13:48:23.902Z,4.90
2022-12-24T13:50:54.103Z,5.35
2022-12-24T13:53:25.444Z,4.95
2022-12-24T13:55:56.087Z,5.13
2022-12-24T13:58:26.121Z,4.90
2022-12-24T14:00:56.592Z,6.30
2022-12-24T14:03:31.044Z,6.35
2022-12-24T14:06:01.208Z,6.47
2022-12-24T14:08:36.634Z,6.68
2022-12-24T14:11:10.676Z,6.45
2022-12-24T14:13:58.015Z,7.20
2022-12-24T14:16:27.764Z,6.50
2022-12-24T14:19:01.033Z,5.35
2022-12-24T14:21:31.499Z,4.55
2022-12-24T14:24:03.481Z,4.60
2022-12-24T14:26:34.094Z,4.28
2022-12-24T14:29:05.201Z,4.97
2022-12-24T14:31:33.945Z,4.03
2022-12-24T14:34:08.887Z,3.95
2022-12-24T14:36:37.934Z,4.15
2022-12-24T14:39:10.614Z,4.75
2022-12-24T14:41:46.685Z,4.65
2022-12-24T14:44:28.556Z,5.20
2022-12-24T14:47:03.365Z,5.28
2022-12-24T14:49:37.266Z,6.40
2022-12-24T14:52:30.627Z,6.85
2022-12-24T14:55:02.137Z,8.98
2022-12-24T14:57:30.807Z,9.48
2022-12-24T15:00:02.256Z,9.75
2022-12-24T15:02:44.064Z,9.77
2022-12-24T15:05:14.945Z,8.40
2022-12-24T15:07:47.930Z,7.18
2022-12-24T15:10:34.709Z,21.95
2022-12-24T15:13:06.710Z,23.38
2022-12-24T15:15:35.883Z,21.83
2022-12-24T15:18:05.753Z,21.85
2022-12-24T15:20:34.310Z,13.65
2022-12-24T15:23:02.975Z,10.88
2022-12-24T15:25:32.556Z,9.20
2022-12-24T15:28:01.390Z,7.65
2022-12-24T15:30:33.410Z,8.13
2022-12-24T15:33:02.343Z,6.00
2022-12-24T15:35:32.778Z,5.22
2022-12-24T15:38:02.075Z,4.40
2022-12-24T15:40:33.319Z,4.90
2022-12-24T15:43:02.144Z,4.32
2022-12-24T15:45:32.957Z,6.20
2022-12-24T15:48:02.792Z,5.72
2022-12-24T15:50:32.637Z,5.72
2022-12-24T15:53:19.505Z,8.02
2022-12-24T15:56:01.233Z,7.40
2022-12-24T15:58:31.167Z,7.70
2022-12-24T16:01:20.344Z,8.18
2022-12-24T16:03:56.975Z,9.18
2022-12-24T16:06:25.859Z,8.23
2022-12-24T16:08:56.323Z,7.43
2022-12-24T16:11:26.385Z,8.10
2022-12-24T16:14:01.425Z,7.65
2022-12-24T16:16:35.950Z,8.68
2022-12-24T16:19:06.100Z,9.98
2022-12-24T16:21:36.501Z,9.32
2022-12-24T16:24:07.705Z,10.15
2022-12-24T16:26:38.230Z,9.93
2022-12-24T16:29:06.816Z,10.10
2022-12-24T16:31:38.719Z,10.68
2022-12-24T16:34:08.638Z,10.25
2022-12-24T16:36:37.285Z,10.85
2022-12-24T16:39:24.438Z,11.40
2022-12-24T16:42:10.706Z,11.23
2022-12-24T16:44:39.530Z,10.30
2022-12-24T16:47:13.369Z,10.25
2022-12-24T16:49:42.150Z,9.00
2022-12-24T16:52:16.651Z,8.27
2022-12-24T16:54:45.327Z,8.60
2022-12-24T16:57:13.961Z,9.77
2022-12-24T16:59:42.650Z,9.60
2022-12-24T17:02:15.491Z,7.10
2022-12-24T17:04:44.447Z,7.20
2022-12-24T17:07:13.456Z,7.82
2022-12-24T17:09:42.313Z,6.80
2022-12-24T17:12:11.553Z,7.43
2022-12-24T17:14:40.394Z,7.47
2022-12-24T17:17:09.165Z,6.78
2022-12-24T17:19:39.831Z,7.18
2022-12-24T17:22:08.613Z,7.40
2022-12-24T17:24:37.304Z,7.93
2022-12-24T17:27:05.883Z,8.27
2022-12-24T17:29:34.653Z,7.45
2022-12-24T17:32:03.448Z,7.72
2022-12-24T17:34:32.239Z,7.20
2022-12-24T17:37:02.178Z,7.78
2022-12-24T17:39:30.911Z,6.95
2022-12-24T17:41:59.530Z,6.97
2022-12-24T17:44:28.111Z,8.95
2022-12-24T17:46:56.768Z,7.70
2022-12-24T17:49:25.637Z,8.93
2022-12-24T17:51:54.229Z,15.57
2022-12-24T17:54:24.475Z,9.50
2022-12-24T17:56:53.150Z,10.50
2022-12-24T17:59:22.180Z,9.50
2022-12-24T18:01:50.892Z,8.50
2022-12-24T18:04:19.659Z,8.00
2022-12-24T18:06:49.876Z,9.30
2022-12-24T18:09:18.746Z,8.68
2022-12-24T18:11:48.862Z,7.75
2022-12-24T18:14:17.518Z,6.97
2022-12-24T18:16:46.319Z,5.60
2022-12-24T18:19:15.130Z,6.63
2022-12-24T18:21:43.769Z,6.40
2022-12-24T18:24:13.561Z,6.60
2022-12-24T18:26:42.302Z,5.40
2022-12-24T18:29:12.544Z,6.07
2022-12-24T18:31:41.241Z,6.72
2022-12-24T18:34:13.777Z,6.32
2022-12-24T18:36:42.462Z,6.72
2022-12-24T18:39:11.167Z,7.15
2022-12-24T18:41:39.721Z,6.80
2022-12-24T18:44:08.387Z,7.28
2022-12-24T18:46:38.412Z,7.68
2022-12-24T18:49:07.194Z,6.95
2022-12-24T18:51:36.463Z,7.43
2022-12-24T18:54:05.298Z,8.60
2022-12-24T18:56:34.109Z,7.45
2022-12-24T18:59:03.559Z,7.53
2022-12-24T19:01:33.129Z,7.45
2022-12-24T19:04:03.815Z,7.82
2022-12-24T19:06:32.758Z,8.25
2022-12-24T19:09:02.122Z,8.50
2022-12-24T19:11:32.156Z,9.32
2022-12-24T19:14:01.418Z,7.82
2022-12-24T19:16:31.068Z,7.80
2022-12-24T19:18:59.817Z,9.20
2022-12-24T19:21:29.908Z,8.77
2022-12-24T19:23:58.589Z,9.27
2022-12-24T19:26:27.747Z,10.48
2022-12-24T19:28:56.947Z,12.95
2022-12-24T19:31:26.812Z,21.33
2022-12-24T19:33:56.472Z,11.23
2022-12-24T19:36:26.182Z,9.73
2022-12-24T19:38:56.915Z,9.75
2022-12-24T19:41:26.397Z,10.25
2022-12-24T19:43:55.926Z,9.60
2022-12-24T19:46:25.729Z,8.95
2022-12-24T19:48:55.518Z,8.95
2022-12-24T19:51:24.757Z,10.07
2022-12-24T19:53:53.567Z,8.07
2022-12-24T19:56:24.300Z,8.40
2022-12-24T19:58:53.171Z,7.40
2022-12-24T20:01:22.795Z,8.00
2022-12-24T20:03:52.665Z,7.40
2022-12-24T20:06:22.820Z,6.30
2022-12-24T20:08:51.584Z,6.32
2022-12-24T20:11:22.366Z,6.45
2022-12-24T20:13:52.516Z,4.82
2022-12-24T20:16:22.709Z,5.28
2022-12-24T20:18:54.602Z,5.90
2022-12-24T20:21:23.358Z,4.90
2022-12-24T20:23:52.254Z,5.18
2022-12-24T20:26:22.588Z,6.22
2022-12-24T20:28:53.227Z,7.47
2022-12-24T20:31:22.807Z,8.18
2022-12-24T20:33:51.482Z,6.22
2022-12-24T20:36:21.807Z,6.75
2022-12-24T20:38:50.611Z,6.00
2022-12-24T20:41:20.361Z,5.35
2022-12-24T20:43:49.348Z,4.95
2022-12-24T20:46:19.874Z,4.63
2022-12-24T20:48:48.911Z,3.95
2022-12-24T20:51:23.870Z,4.05
2022-12-24T20:53:53.940Z,5.47
2022-12-24T20:56:22.712Z,7.03
2022-12-24T20:58:51.422Z,4.47
2022-12-24T21:01:24.613Z,4.43
2022-12-24T21:03:53.918Z,3.42
2022-12-24T21:06:23.950Z,3.63
2022-12-24T21:08:53.353Z,3.40
2022-12-24T21:11:40.328Z,3.60
2022-12-24T21:14:09.376Z,4.30
2022-12-24T21:16:40.339Z,4.20
2022-12-24T21:19:10.240Z,4.20
2022-12-24T21:21:39.067Z,3.75
2022-12-24T21:24:08.010Z,4.10
2022-12-24T21:26:38.426Z,3.85
2022-12-24T21:29:08.202Z,3.22
2022-12-24T21:31:37.210Z,3.63
2022-12-24T21:34:07.303Z,3.40
2022-12-24T21:36:35.908Z,3.85
2022-12-24T21:39:05.018Z,3.53
2022-12-24T21:41:33.751Z,3.45
2022-12-24T21:44:02.828Z,3.50
2022-12-24T21:46:31.645Z,4.60
2022-12-24T21:49:18.140Z,3.60
2022-12-24T21:51:49.119Z,3.55
2022-12-24T21:54:23.226Z,5.28
2022-12-24T21:57:10.028Z,4.57
2022-12-24T21:59:38.721Z,5.32
2022-12-24T22:02:07.625Z,5.57
2022-12-24T22:04:37.199Z,4.97
2022-12-24T22:07:24.747Z,3.80
2022-12-24T22:10:11.236Z,4.38
2022-12-24T22:12:39.786Z,4.32
2022-12-24T22:15:09.055Z,5.00
2022-12-24T22:17:37.701Z,3.95
2022-12-24T22:20:06.816Z,4.43
2022-12-24T22:22:37.119Z,4.35
2022-12-24T22:25:05.745Z,4.07
2022-12-24T22:27:34.406Z,5.00
2022-12-24T22:30:03.050Z,5.00
2022-12-24T22:32:31.719Z,5.32
2022-12-24T22:35:00.353Z,4.85
2022-12-24T22:37:29.145Z,5.70
2022-12-24T22:39:59.215Z,4.97
2022-12-24T22:42:27.999Z,5.30
2022-12-24T22:44:56.691Z,4.93
2022-12-24T22:47:25.409Z,4.82
2022-12-24T22:49:53.990Z,4.85
2022-12-24T22:52:22.785Z,5.15
2022-12-24T22:54:51.485Z,4.50
2022-12-24T22:57:21.420Z,4.93
2022-12-24T22:59:50.449Z,4.68
2022-12-24T23:02:25.723Z,4.38
2022-12-24T23:04:56.632Z,5.25
2022-12-24T23:07:25.314Z,4.28
2022-12-24T23:09:53.971Z,4.72
2022-12-24T23:12:37.895Z,5.10
2022-12-24T23:15:06.944Z,4.78
2022-12-24T23:17:35.560Z,5.00
2022-12-24T23:20:04.420Z,4.60
2022-12-24T23:22:33.183Z,4.40
2022-12-24T23:25:01.855Z,4.60
2022-12-24T23:27:32.069Z,4.90
2022-12-24T23:30:00.807Z,5.00
2022-12-24T23:32:29.480Z,4.50
2022-12-24T23:34:58.252Z,4.15
2022-12-24T23:37:32.968Z,3.70
2022-12-24T23:40:03.795Z,4.65
2022-12-24T23:42:33.833Z,3.70
2022-12-24T23:45:02.537Z,3.60
2022-12-24T23:47:31.194Z,3.70
2022-12-24T23:49:59.829Z,3.42
2022-12-24T23:52:28.671Z,3.22
2022-12-24T23:54:57.751Z,2.70
2022-12-24T23:57:26.495Z,3.07
2022-12-24T23:59:56.566Z,3.28
